createdAt,value
2023-03-29T00:00:13.960Z,49.87
2023-03-29T00:03:02.179Z,50.37
2023-03-29T00:05:33.219Z,50.00
2023-03-29T00:08:04.357Z,50.26
2023-03-29T00:10:33.893Z,50.12
2023-03-29T00:13:02.767Z,50.27
2023-03-29T00:15:29.804Z,50.33
2023-03-29T00:17:58.220Z,50.32
2023-03-29T00:20:25.550Z,49.78
2023-03-29T00:22:52.775Z,50.17
2023-03-29T00:25:20.104Z,50.02
2023-03-29T00:27:47.325Z,50.31
2023-03-29T00:30:15.078Z,50.19
2023-03-29T00:32:43.240Z,50.85
2023-03-29T00:35:11.202Z,51.19
2023-03-29T00:37:38.553Z,51.30
2023-03-29T00:40:12.857Z,50.42
2023-03-29T00:42:48.269Z,50.73
2023-03-29T00:45:25.263Z,50.68
2023-03-29T00:47:57.973Z,50.85
2023-03-29T00:50:36.378Z,51.07
2023-03-29T00:53:20.108Z,50.94
2023-03-29T00:56:29.959Z,51.13
2023-03-29T00:59:05.205Z,50.84
2023-03-29T01:01:54.516Z,51.16
2023-03-29T01:04:54.886Z,51.57
2023-03-29T01:07:53.568Z,50.60
2023-03-29T01:10:41.852Z,50.90
2023-03-29T01:13:16.999Z,51.68
2023-03-29T01:15:47.640Z,51.32
2023-03-29T01:18:14.972Z,51.81
2023-03-29T01:21:14.857Z,52.35
2023-03-29T01:24:19.181Z,52.74
2023-03-29T01:27:05.389Z,53.03
2023-03-29T01:29:39.289Z,53.29
2023-03-29T01:32:26.592Z,53.29
2023-03-29T01:35:11.352Z,53.55
2023-03-29T01:37:49.424Z,53.83
2023-03-29T01:40:16.655Z,53.74
2023-03-29T01:43:06.198Z,54.12
2023-03-29T01:45:39.164Z,54.40
2023-03-29T01:48:36.815Z,54.10
2023-03-29T01:51:20.874Z,54.58
2023-03-29T01:54:41.430Z,54.51
2023-03-29T01:57:11.865Z,54.66
2023-03-29T01:59:44.654Z,54.44
2023-03-29T02:02:18.481Z,54.54
2023-03-29T02:04:53.720Z,54.45
2023-03-29T02:07:30.799Z,55.06
2023-03-29T02:09:59.469Z,54.77
2023-03-29T02:12:27.054Z,54.68
2023-03-29T02:14:54.416Z,54.48
2023-03-29T02:17:25.112Z,54.75
2023-03-29T02:20:17.385Z,55.46
2023-03-29T02:23:27.846Z,55.54
2023-03-29T02:25:57.060Z,55.65
2023-03-29T02:28:25.472Z,56.13
2023-03-29T02:31:23.046Z,56.12
2023-03-29T02:34:06.845Z,55.35
2023-03-29T02:36:53.584Z,54.83
2023-03-29T02:39:22.950Z,55.19
2023-03-29T02:41:52.209Z,55.12
2023-03-29T02:44:24.873Z,54.78
2023-03-29T02:46:58.843Z,54.64
2023-03-29T02:49:27.044Z,55.01
2023-03-29T02:51:59.872Z,54.78
2023-03-29T02:54:31.832Z,54.67
2023-03-29T02:57:04.849Z,54.74
2023-03-29T02:59:33.400Z,54.33
2023-03-29T03:02:01.473Z,54.33
2023-03-29T03:04:29.470Z,54.20
2023-03-29T03:06:56.691Z,54.24
2023-03-29T03:09:24.238Z,54.31
2023-03-29T03:11:51.423Z,54.10
2023-03-29T03:14:19.156Z,53.91
2023-03-29T03:16:46.397Z,54.10
2023-03-29T03:19:14.212Z,54.04
2023-03-29T03:21:41.409Z,54.65
2023-03-29T03:24:08.332Z,53.87
2023-03-29T03:26:36.045Z,54.30
2023-03-29T03:29:03.083Z,53.73
2023-03-29T03:31:30.843Z,53.85
2023-03-29T03:33:58.080Z,53.57
2023-03-29T03:36:26.379Z,53.26
2023-03-29T03:38:53.596Z,53.77
2023-03-29T03:41:20.938Z,53.44
2023-03-29T03:43:49.183Z,53.27
2023-03-29T03:46:17.314Z,53.64
2023-03-29T03:48:47.266Z,53.64
2023-03-29T03:51:14.556Z,53.26
2023-03-29T03:53:41.664Z,53.49
2023-03-29T03:56:09.341Z,52.84
2023-03-29T03:58:37.743Z,53.49
2023-03-29T04:01:08.468Z,53.53
2023-03-29T04:03:36.080Z,53.41
2023-03-29T04:06:04.816Z,53.17
2023-03-29T04:08:32.101Z,53.37
2023-03-29T04:11:00.248Z,53.51
2023-03-29T04:13:28.136Z,53.73
2023-03-29T04:15:58.748Z,53.70
2023-03-29T04:18:27.768Z,53.80
2023-03-29T04:20:55.332Z,53.70
2023-03-29T04:23:22.748Z,53.06
2023-03-29T04:25:50.228Z,53.68
2023-03-29T04:28:17.653Z,53.34
2023-03-29T04:30:47.362Z,53.79
2023-03-29T04:33:14.876Z,53.82
2023-03-29T04:35:42.555Z,53.68
2023-03-29T04:38:10.237Z,53.45
2023-03-29T04:40:38.402Z,53.39
2023-03-29T04:43:06.359Z,53.11
2023-03-29T04:45:33.505Z,53.27
2023-03-29T04:48:00.543Z,53.07
2023-03-29T04:50:28.303Z,53.11
2023-03-29T04:52:55.695Z,53.18
2023-03-29T04:55:22.974Z,53.28
2023-03-29T04:57:49.944Z,52.63
2023-03-29T05:00:17.683Z,52.69
2023-03-29T05:02:45.833Z,52.52
2023-03-29T05:05:14.331Z,51.81
2023-03-29T05:07:41.673Z,51.67
2023-03-29T05:10:09.369Z,51.61
2023-03-29T05:12:36.891Z,51.80
2023-03-29T05:15:09.692Z,51.83
2023-03-29T05:17:36.805Z,51.48
2023-03-29T05:20:11.269Z,51.72
2023-03-29T05:22:39.071Z,51.38
2023-03-29T05:25:08.292Z,51.77
2023-03-29T05:27:36.026Z,51.06
2023-03-29T05:30:04.022Z,50.99
2023-03-29T05:32:31.067Z,50.85
2023-03-29T05:34:58.739Z,51.19
2023-03-29T05:37:26.663Z,51.70
2023-03-29T05:39:55.032Z,51.46
2023-03-29T05:42:33.239Z,51.24
2023-03-29T05:45:00.820Z,50.90
2023-03-29T05:47:28.689Z,50.64
2023-03-29T05:49:57.327Z,50.87
2023-03-29T05:52:24.920Z,50.62
2023-03-29T05:54:52.412Z,50.20
2023-03-29T05:57:19.694Z,49.49
2023-03-29T05:59:48.040Z,49.84
2023-03-29T06:02:16.141Z,49.25
2023-03-29T06:04:43.479Z,49.47
2023-03-29T06:07:12.619Z,49.43
2023-03-29T06:09:39.979Z,49.84
2023-03-29T06:12:08.459Z,49.24
2023-03-29T06:14:36.455Z,48.45
2023-03-29T06:17:03.996Z,48.90
2023-03-29T06:19:31.891Z,48.59
2023-03-29T06:21:58.838Z,48.71
2023-03-29T06:24:26.136Z,48.33
2023-03-29T06:26:53.349Z,48.59
2023-03-29T06:29:20.844Z,48.14
2023-03-29T06:31:48.217Z,48.25
2023-03-29T06:34:16.484Z,48.55
2023-03-29T06:36:43.380Z,47.67
2023-03-29T06:39:11.161Z,47.65
2023-03-29T06:41:38.740Z,47.30
2023-03-29T06:44:06.127Z,47.46
2023-03-29T06:46:33.166Z,47.00
2023-03-29T06:49:01.151Z,46.76
2023-03-29T06:51:28.116Z,46.85
2023-03-29T06:53:55.580Z,46.89
2023-03-29T06:56:22.627Z,46.91
2023-03-29T06:58:49.893Z,46.70
2023-03-29T07:01:17.208Z,46.86
2023-03-29T07:03:46.759Z,47.04
2023-03-29T07:06:15.037Z,47.02
2023-03-29T07:08:47.398Z,46.88
2023-03-29T07:11:16.338Z,46.54
2023-03-29T07:13:44.978Z,46.58
2023-03-29T07:16:13.809Z,46.70
2023-03-29T07:18:44.140Z,46.68
2023-03-29T07:21:13.526Z,46.62
2023-03-29T07:23:41.340Z,46.86
2023-03-29T07:26:08.969Z,47.26
2023-03-29T07:28:43.243Z,47.39
2023-03-29T07:31:12.390Z,47.20
2023-03-29T07:33:40.076Z,47.30
2023-03-29T07:36:08.460Z,46.98
2023-03-29T07:38:36.906Z,47.53
2023-03-29T07:41:07.926Z,47.44
2023-03-29T07:43:35.733Z,47.32
2023-03-29T07:46:05.489Z,47.46
2023-03-29T07:48:34.512Z,47.74
2023-03-29T07:51:01.997Z,47.28
2023-03-29T07:53:32.303Z,47.16
2023-03-29T07:55:59.467Z,46.62
2023-03-29T07:58:26.730Z,47.03
2023-03-29T08:00:53.836Z,46.64
2023-03-29T08:03:21.750Z,46.97
2023-03-29T08:05:48.963Z,46.58
2023-03-29T08:08:16.140Z,46.81
2023-03-29T08:10:43.093Z,47.12
2023-03-29T08:13:11.922Z,46.98
2023-03-29T08:15:40.960Z,47.51
2023-03-29T08:18:08.454Z,47.49
2023-03-29T08:20:35.579Z,47.94
2023-03-29T08:23:02.966Z,47.56
2023-03-29T08:25:30.064Z,48.25
2023-03-29T08:27:57.304Z,47.69
2023-03-29T08:30:25.155Z,48.11
2023-03-29T08:32:55.187Z,48.48
2023-03-29T08:35:22.922Z,49.08
2023-03-29T08:37:50.315Z,49.71
2023-03-29T08:40:24.060Z,50.38
2023-03-29T08:43:18.911Z,50.99
2023-03-29T08:46:09.089Z,51.46
2023-03-29T08:48:45.472Z,51.70
2023-03-29T08:51:24.585Z,52.20
2023-03-29T08:54:01.505Z,52.65
2023-03-29T08:56:34.431Z,52.30
2023-03-29T08:59:02.396Z,52.48
2023-03-29T09:01:36.392Z,52.78
2023-03-29T09:04:10.185Z,53.92
2023-03-29T09:06:40.083Z,55.07
2023-03-29T09:09:17.423Z,55.28
2023-03-29T09:11:47.100Z,57.24
2023-03-29T09:14:57.590Z,58.04
2023-03-29T09:18:01.627Z,60.08
2023-03-29T09:21:11.712Z,62.20
2023-03-29T09:24:15.596Z,62.86
2023-03-29T09:26:54.821Z,62.97
2023-03-29T09:29:41.183Z,63.70
2023-03-29T09:32:22.378Z,64.48
2023-03-29T09:35:18.186Z,63.29
2023-03-29T09:37:49.184Z,62.78
2023-03-29T09:40:41.891Z,63.56
2023-03-29T09:43:15.116Z,63.31
2023-03-29T09:45:44.033Z,61.89
2023-03-29T09:48:19.336Z,61.11
2023-03-29T09:50:48.591Z,61.14
2023-03-29T09:53:16.403Z,60.63
2023-03-29T09:55:49.727Z,60.29
2023-03-29T09:58:23.339Z,60.25
2023-03-29T10:00:51.059Z,58.95
2023-03-29T10:03:25.554Z,59.33
2023-03-29T10:05:56.951Z,59.20
2023-03-29T10:08:44.182Z,58.81
2023-03-29T10:11:28.974Z,59.10
2023-03-29T10:14:04.743Z,59.10
2023-03-29T10:16:41.227Z,58.57
2023-03-29T10:19:28.320Z,58.62
2023-03-29T10:21:59.873Z,58.11
2023-03-29T10:24:28.260Z,58.27
2023-03-29T10:27:02.649Z,58.64
2023-03-29T10:29:41.119Z,58.27
2023-03-29T10:32:38.801Z,58.10
2023-03-29T10:35:26.166Z,57.59
2023-03-29T10:37:58.346Z,57.76
2023-03-29T10:40:25.503Z,57.12
2023-03-29T10:42:57.641Z,57.83
2023-03-29T10:45:31.887Z,57.15
2023-03-29T10:47:59.218Z,56.61
2023-03-29T10:50:34.594Z,56.99
2023-03-29T10:53:03.208Z,56.73
2023-03-29T10:56:13.831Z,56.39
2023-03-29T10:58:52.725Z,56.32
2023-03-29T11:01:57.974Z,56.31
2023-03-29T11:04:38.193Z,56.56
2023-03-29T11:07:34.650Z,56.47
2023-03-29T11:10:16.874Z,56.09
2023-03-29T11:13:34.572Z,55.74
2023-03-29T11:16:42.101Z,55.87
2023-03-29T11:19:34.215Z,56.19
2023-03-29T11:22:57.310Z,56.02
2023-03-29T11:26:01.567Z,55.21
2023-03-29T11:28:55.343Z,55.32
2023-03-29T11:31:40.838Z,54.99
2023-03-29T11:34:39.650Z,55.16
2023-03-29T11:37:44.060Z,54.48
2023-03-29T11:40:42.802Z,54.85
2023-03-29T11:43:19.183Z,54.31
2023-03-29T11:46:00.985Z,54.37
2023-03-29T11:49:15.295Z,54.71
2023-03-29T11:51:59.531Z,54.02
2023-03-29T11:54:57.391Z,53.81
2023-03-29T11:58:06.569Z,53.51
2023-03-29T12:00:44.941Z,53.87
2023-03-29T12:03:35.339Z,53.58
2023-03-29T12:06:27.972Z,53.49
2023-03-29T12:09:10.982Z,53.31
2023-03-29T12:11:57.745Z,53.81
2023-03-29T12:14:42.554Z,53.10
2023-03-29T12:17:18.646Z,53.68
2023-03-29T12:20:02.680Z,53.00
2023-03-29T12:22:31.320Z,52.73
2023-03-29T12:25:00.650Z,53.30
2023-03-29T12:27:37.552Z,52.63
2023-03-29T12:30:34.219Z,52.59
2023-03-29T12:33:32.939Z,52.90
2023-03-29T12:36:41.578Z,53.42
2023-03-29T12:39:17.833Z,53.21
2023-03-29T12:41:49.026Z,52.29
2023-03-29T12:44:22.778Z,52.67
2023-03-29T12:47:00.502Z,52.15
2023-03-29T12:49:39.058Z,52.23
2023-03-29T12:52:27.139Z,52.06
2023-03-29T12:54:59.403Z,52.08
2023-03-29T12:57:43.106Z,51.30
2023-03-29T13:00:39.715Z,51.35
2023-03-29T13:03:46.565Z,51.53
2023-03-29T13:06:28.964Z,51.31
2023-03-29T13:09:22.639Z,50.83
2023-03-29T13:12:13.464Z,50.22
2023-03-29T13:14:46.488Z,50.46
2023-03-29T13:17:49.000Z,50.27
2023-03-29T13:20:41.052Z,49.83
2023-03-29T13:23:29.468Z,49.23
2023-03-29T13:26:40.927Z,49.87
2023-03-29T13:29:47.970Z,49.94
2023-03-29T13:32:38.919Z,49.30
2023-03-29T13:35:35.796Z,48.41
2023-03-29T13:38:08.108Z,48.56
2023-03-29T13:40:44.352Z,48.85
2023-03-29T13:43:20.227Z,48.22
2023-03-29T13:45:59.394Z,47.63
2023-03-29T13:48:48.999Z,47.54
2023-03-29T13:51:19.308Z,47.83
2023-03-29T13:54:03.397Z,48.16
2023-03-29T13:56:58.088Z,47.75
2023-03-29T14:00:02.601Z,48.01
2023-03-29T14:02:41.922Z,48.57
2023-03-29T14:05:14.915Z,48.27
2023-03-29T14:07:53.455Z,48.17
2023-03-29T14:10:39.834Z,48.29
2023-03-29T14:13:13.760Z,48.49
2023-03-29T14:15:53.536Z,48.36
2023-03-29T14:18:27.698Z,48.42
2023-03-29T14:20:56.229Z,48.25
2023-03-29T14:23:27.451Z,48.69
2023-03-29T14:25:54.334Z,48.65
2023-03-29T14:28:28.534Z,48.40
2023-03-29T14:30:56.746Z,48.20
2023-03-29T14:33:34.949Z,48.57
2023-03-29T14:36:05.117Z,48.14
2023-03-29T14:38:35.613Z,47.97
2023-03-29T14:41:03.847Z,48.01
2023-03-29T14:43:32.194Z,48.14
2023-03-29T14:46:06.318Z,48.20
2023-03-29T14:48:35.691Z,48.52
2023-03-29T14:51:04.141Z,48.40
2023-03-29T14:53:34.464Z,48.61
2023-03-29T14:56:02.504Z,48.68
2023-03-29T14:58:35.394Z,48.73
2023-03-29T15:01:19.142Z,48.51
2023-03-29T15:04:09.120Z,48.62
2023-03-29T15:06:43.661Z,48.94
2023-03-29T15:09:34.172Z,48.20
2023-03-29T15:12:03.565Z,48.25
2023-03-29T15:14:37.071Z,48.00
2023-03-29T15:17:50.216Z,48.17
2023-03-29T15:20:25.775Z,48.57
2023-03-29T15:23:02.196Z,48.21
2023-03-29T15:25:38.388Z,48.01
2023-03-29T15:28:06.238Z,47.86
2023-03-29T15:30:38.696Z,48.25
2023-03-29T15:33:24.831Z,48.00
2023-03-29T15:35:54.033Z,48.21
2023-03-29T15:38:27.511Z,47.78
2023-03-29T15:41:01.739Z,47.90
2023-03-29T15:43:28.985Z,47.44
2023-03-29T15:45:56.561Z,47.57
2023-03-29T15:48:27.306Z,48.21
2023-03-29T15:50:55.309Z,48.30
2023-03-29T15:53:23.722Z,47.76
2023-03-29T15:55:54.949Z,47.92
2023-03-29T15:58:30.165Z,48.12
2023-03-29T16:01:37.646Z,48.09
2023-03-29T16:04:14.173Z,48.06
2023-03-29T16:06:42.607Z,47.79
2023-03-29T16:09:11.901Z,47.50
2023-03-29T16:11:41.560Z,48.01
2023-03-29T16:14:31.517Z,47.92
2023-03-29T16:17:01.391Z,47.82
2023-03-29T16:19:31.611Z,47.75
2023-03-29T16:22:02.331Z,48.24
2023-03-29T16:24:32.152Z,48.30
2023-03-29T16:27:01.402Z,47.84
2023-03-29T16:29:29.605Z,48.30
2023-03-29T16:31:57.270Z,47.83
2023-03-29T16:34:24.440Z,48.35
2023-03-29T16:36:53.093Z,48.67
2023-03-29T16:39:20.082Z,48.16
2023-03-29T16:41:49.082Z,48.27
2023-03-29T16:44:21.672Z,48.82
2023-03-29T16:46:50.464Z,48.78
2023-03-29T16:49:18.736Z,48.33
2023-03-29T16:51:47.437Z,48.50
2023-03-29T16:54:17.254Z,48.29
2023-03-29T16:56:44.995Z,49.00
2023-03-29T16:59:12.276Z,48.82
2023-03-29T17:01:40.596Z,48.74
2023-03-29T17:04:09.020Z,48.87
2023-03-29T17:06:36.438Z,48.70
2023-03-29T17:09:05.232Z,48.59
2023-03-29T17:11:32.903Z,48.90
2023-03-29T17:14:00.221Z,49.04
2023-03-29T17:16:29.118Z,49.46
2023-03-29T17:19:00.609Z,49.56
2023-03-29T17:21:29.318Z,48.95
2023-03-29T17:23:56.418Z,49.73
2023-03-29T17:26:23.924Z,49.75
2023-03-29T17:28:51.010Z,49.65
2023-03-29T17:31:19.576Z,49.72
2023-03-29T17:33:47.578Z,49.79
2023-03-29T17:36:15.057Z,49.74
2023-03-29T17:38:42.831Z,50.09
2023-03-29T17:41:10.226Z,49.93
2023-03-29T17:43:37.166Z,50.41
2023-03-29T17:46:04.963Z,50.11
2023-03-29T17:48:32.948Z,50.58
2023-03-29T17:51:00.325Z,49.95
2023-03-29T17:53:27.464Z,50.72
2023-03-29T17:55:55.016Z,50.67
2023-03-29T17:58:22.039Z,50.28
2023-03-29T18:00:49.854Z,50.37
2023-03-29T18:03:19.641Z,50.72
2023-03-29T18:05:51.614Z,50.99
2023-03-29T18:08:20.382Z,50.57
2023-03-29T18:10:48.320Z,50.52
2023-03-29T18:13:16.048Z,51.28
2023-03-29T18:15:45.237Z,50.94
2023-03-29T18:18:12.121Z,51.54
2023-03-29T18:20:39.378Z,51.60
2023-03-29T18:23:06.580Z,51.45
2023-03-29T18:25:34.264Z,51.56
2023-03-29T18:28:01.167Z,51.46
2023-03-29T18:30:28.509Z,51.78
2023-03-29T18:32:55.686Z,51.60
2023-03-29T18:35:23.705Z,51.80
2023-03-29T18:37:51.578Z,52.34
2023-03-29T18:40:24.708Z,52.58
2023-03-29T18:42:52.372Z,52.29
2023-03-29T18:45:19.992Z,52.70
2023-03-29T18:47:47.044Z,53.04
2023-03-29T18:50:14.413Z,53.11
2023-03-29T18:52:42.119Z,52.87
2023-03-29T18:55:10.309Z,52.94
2023-03-29T18:57:37.387Z,53.30
2023-03-29T19:00:10.641Z,53.14
2023-03-29T19:02:39.812Z,53.55
2023-03-29T19:05:08.698Z,53.22
2023-03-29T19:07:36.803Z,53.24
2023-03-29T19:10:06.783Z,53.68
2023-03-29T19:12:34.064Z,53.22
2023-03-29T19:15:01.950Z,53.52
2023-03-29T19:17:28.893Z,53.63
2023-03-29T19:19:56.819Z,53.23
2023-03-29T19:22:23.806Z,53.30
2023-03-29T19:24:51.511Z,53.53
2023-03-29T19:27:18.662Z,53.01
2023-03-29T19:29:46.231Z,53.13
2023-03-29T19:32:13.739Z,53.47
2023-03-29T19:34:41.006Z,53.58
2023-03-29T19:37:07.980Z,53.83
2023-03-29T19:39:35.346Z,53.49
2023-03-29T19:42:02.318Z,53.21
2023-03-29T19:44:30.302Z,53.77
2023-03-29T19:46:57.294Z,53.77
2023-03-29T19:49:24.532Z,53.45
2023-03-29T19:51:55.596Z,53.83
2023-03-29T19:54:24.149Z,53.69
2023-03-29T19:56:52.825Z,54.07
2023-03-29T19:59:20.326Z,54.32
2023-03-29T20:01:51.181Z,54.33
2023-03-29T20:04:22.740Z,54.68
2023-03-29T20:06:50.048Z,54.73
2023-03-29T20:09:17.370Z,54.71
2023-03-29T20:11:45.012Z,54.79
2023-03-29T20:14:12.636Z,54.62
2023-03-29T20:16:40.509Z,55.12
2023-03-29T20:19:08.115Z,54.98
2023-03-29T20:21:37.348Z,55.33
2023-03-29T20:24:05.951Z,55.40
2023-03-29T20:26:33.059Z,55.89
2023-03-29T20:29:00.700Z,55.85
2023-03-29T20:31:29.556Z,55.83
2023-03-29T20:33:57.658Z,56.19
2023-03-29T20:36:26.703Z,56.15
2023-03-29T20:38:56.307Z,56.47
2023-03-29T20:41:23.604Z,56.57
2023-03-29T20:43:58.437Z,56.84
2023-03-29T20:46:34.879Z,56.89
2023-03-29T20:49:11.207Z,56.96
2023-03-29T20:51:39.738Z,56.66
2023-03-29T20:54:07.589Z,57.14
2023-03-29T20:56:39.130Z,57.32
2023-03-29T20:59:10.728Z,57.14
2023-03-29T21:01:41.057Z,57.83
2023-03-29T21:04:10.888Z,57.80
2023-03-29T21:06:39.659Z,57.54
2023-03-29T21:09:07.480Z,57.85
2023-03-29T21:11:34.501Z,58.12
2023-03-29T21:14:02.685Z,57.70
2023-03-29T21:16:29.929Z,58.15
2023-03-29T21:18:57.258Z,58.70
2023-03-29T21:21:24.308Z,58.41
2023-03-29T21:23:51.524Z,58.68
2023-03-29T21:26:18.439Z,58.24
2023-03-29T21:28:45.930Z,58.05
2023-03-29T21:31:12.887Z,58.45
2023-03-29T21:33:40.109Z,58.26
2023-03-29T21:36:08.284Z,58.08
2023-03-29T21:38:35.793Z,58.16
2023-03-29T21:41:03.277Z,58.42
2023-03-29T21:43:30.824Z,58.41
2023-03-29T21:45:57.867Z,58.33
2023-03-29T21:48:25.153Z,58.39
2023-03-29T21:50:52.097Z,58.84
2023-03-29T21:53:19.321Z,58.51
2023-03-29T21:55:49.617Z,58.73
2023-03-29T21:58:19.557Z,58.47
2023-03-29T22:00:47.937Z,58.86
2023-03-29T22:03:16.666Z,58.46
2023-03-29T22:05:44.449Z,58.73
2023-03-29T22:08:11.800Z,59.09
2023-03-29T22:10:41.478Z,59.02
2023-03-29T22:13:09.432Z,59.10
2023-03-29T22:15:36.429Z,59.17
2023-03-29T22:18:05.195Z,59.32
2023-03-29T22:20:35.704Z,59.49
2023-03-29T22:23:03.434Z,59.76
2023-03-29T22:25:30.565Z,60.04
2023-03-29T22:27:58.077Z,59.73
2023-03-29T22:30:25.122Z,60.06
2023-03-29T22:32:52.662Z,60.01
2023-03-29T22:35:19.729Z,59.37
2023-03-29T22:37:47.140Z,59.63
2023-03-29T22:40:14.406Z,59.97
2023-03-29T22:42:41.746Z,59.81
2023-03-29T22:45:09.831Z,60.13
2023-03-29T22:47:37.251Z,60.24
2023-03-29T22:50:04.840Z,60.01
2023-03-29T22:52:32.201Z,59.82
2023-03-29T22:54:59.263Z,59.44
2023-03-29T22:57:26.641Z,59.61
2023-03-29T22:59:53.881Z,59.94
2023-03-29T23:02:21.780Z,59.69
2023-03-29T23:04:49.102Z,60.44
2023-03-29T23:07:16.762Z,60.50
2023-03-29T23:09:43.819Z,60.23
2023-03-29T23:12:11.127Z,60.22
2023-03-29T23:14:42.610Z,60.28
2023-03-29T23:17:10.407Z,60.07
2023-03-29T23:19:38.147Z,60.49
2023-03-29T23:22:05.652Z,60.54
2023-03-29T23:24:32.819Z,60.66
2023-03-29T23:27:01.189Z,60.57
2023-03-29T23:29:28.402Z,60.22
2023-03-29T23:31:56.928Z,60.15
2023-03-29T23:34:24.138Z,59.92
2023-03-29T23:36:51.629Z,59.62
2023-03-29T23:39:18.733Z,59.63
2023-03-29T23:41:46.198Z,60.12
2023-03-29T23:44:13.336Z,59.72
2023-03-29T23:46:42.038Z,59.53
2023-03-29T23:49:10.018Z,59.84
2023-03-29T23:51:39.251Z,59.38
2023-03-29T23:54:06.736Z,59.93
2023-03-29T23:56:34.707Z,59.84
2023-03-29T23:59:03.356Z,59.89
